createdAt,value
2023-01-12T00:03:12.383Z,6.40
2023-01-12T00:08:14.071Z,6.40
2023-01-12T00:13:15.770Z,6.40
2023-01-12T00:18:17.777Z,6.30
2023-01-12T00:23:19.921Z,6.30
2023-01-12T00:28:21.643Z,6.20
2023-01-12T00:33:23.365Z,6.40
2023-01-12T00:38:25.949Z,6.80
2023-01-12T00:43:46.315Z,7.00
2023-01-12T00:48:48.084Z,7.20
2023-01-12T00:53:49.832Z,7.20
2023-01-12T00:58:51.553Z,7.30
2023-01-12T01:03:54.158Z,7.40
2023-01-12T01:08:55.939Z,7.40
2023-01-12T01:13:59.198Z,7.40
2023-01-12T01:19:01.309Z,7.50
2023-01-12T01:24:03.551Z,7.30
2023-01-12T01:29:05.281Z,7.00
2023-01-12T01:34:06.988Z,6.90
2023-01-12T01:39:08.730Z,6.80
2023-01-12T01:44:29.464Z,6.90
2023-01-12T01:49:46.059Z,7.00
2023-01-12T01:54:56.291Z,6.90
2023-01-12T01:59:58.681Z,7.00
2023-01-12T02:05:00.974Z,7.10
2023-01-12T02:10:03.771Z,7.10
2023-01-12T02:15:24.373Z,7.20
2023-01-12T02:21:05.205Z,7.40
2023-01-12T02:26:28.832Z,7.50
2023-01-12T02:31:40.470Z,7.60
2023-01-12T02:37:05.431Z,7.70
2023-01-12T02:42:39.952Z,7.80
2023-01-12T02:47:55.449Z,7.80
2023-01-12T02:53:04.699Z,7.70
2023-01-12T02:58:11.129Z,7.90
2023-01-12T03:03:13.110Z,8.00
2023-01-12T03:08:23.690Z,8.10
2023-01-12T03:13:28.724Z,8.20
2023-01-12T03:18:41.478Z,8.20
2023-01-12T03:23:46.081Z,8.20
2023-01-12T03:28:54.132Z,8.20
2023-01-12T03:33:56.021Z,8.30
2023-01-12T03:39:42.143Z,8.40
2023-01-12T03:45:06.590Z,8.40
2023-01-12T03:50:16.487Z,8.40
2023-01-12T03:55:22.778Z,8.50
2023-01-12T04:00:27.048Z,8.50
2023-01-12T04:05:28.794Z,8.50
2023-01-12T04:10:30.713Z,8.60
2023-01-12T04:15:36.192Z,8.50
2023-01-12T04:20:38.814Z,8.50
2023-01-12T04:25:41.601Z,8.60
2023-01-12T04:30:43.318Z,8.60
2023-01-12T04:35:47.388Z,8.60
2023-01-12T04:40:56.565Z,8.70
2023-01-12T04:45:58.331Z,8.60
2023-01-12T04:51:01.172Z,8.60
2023-01-12T04:56:07.377Z,8.70
2023-01-12T05:01:18.028Z,8.70
2023-01-12T05:06:19.869Z,8.70
2023-01-12T05:11:25.364Z,8.70
2023-01-12T05:16:27.502Z,8.70
2023-01-12T05:21:30.539Z,8.80
2023-01-12T05:26:32.276Z,8.80
2023-01-12T05:31:35.038Z,8.90
2023-01-12T05:36:36.738Z,8.90
2023-01-12T05:41:58.499Z,8.90
2023-01-12T05:47:00.153Z,8.90
2023-01-12T05:52:02.037Z,8.90
2023-01-12T05:57:03.863Z,9.00
2023-01-12T06:02:05.651Z,9.00
2023-01-12T06:07:07.365Z,9.00
2023-01-12T06:12:30.319Z,9.10
2023-01-12T06:17:32.049Z,9.00
2023-01-12T06:22:33.783Z,9.00
2023-01-12T06:27:35.980Z,9.00
2023-01-12T06:32:38.927Z,9.00
2023-01-12T06:37:40.760Z,9.00
2023-01-12T06:42:42.805Z,9.00
2023-01-12T06:47:49.522Z,8.90
2023-01-12T06:52:52.291Z,8.90
2023-01-12T06:57:54.105Z,8.90
2023-01-12T07:02:55.866Z,8.90
2023-01-12T07:08:00.242Z,8.90
2023-01-12T07:13:01.940Z,8.90
2023-01-12T07:18:03.896Z,8.90
2023-01-12T07:23:05.738Z,9.00
2023-01-12T07:28:08.411Z,9.00
2023-01-12T07:33:12.930Z,9.10
2023-01-12T07:38:14.632Z,9.10
2023-01-12T07:43:19.034Z,9.10
2023-01-12T07:48:21.227Z,9.20
2023-01-12T07:53:23.826Z,9.20
2023-01-12T07:58:27.582Z,9.30
2023-01-12T08:03:29.282Z,9.30
2023-01-12T08:08:31.064Z,9.30
2023-01-12T08:13:33.549Z,9.30
2023-01-12T08:19:03.701Z,9.40
2023-01-12T08:24:06.636Z,9.40
2023-01-12T08:29:13.148Z,9.40
2023-01-12T08:34:15.152Z,9.40
2023-01-12T08:39:16.871Z,9.50
2023-01-12T08:44:19.377Z,9.50
2023-01-12T08:49:25.483Z,9.60
2023-01-12T08:54:27.258Z,9.60
2023-01-12T08:59:28.945Z,9.60
2023-01-12T09:04:30.725Z,9.70
2023-01-12T09:09:32.574Z,9.70
2023-01-12T09:14:38.568Z,9.70
2023-01-12T09:19:40.407Z,9.80
2023-01-12T09:24:42.132Z,9.80
2023-01-12T09:29:43.816Z,10.00
2023-01-12T09:34:48.363Z,10.10
2023-01-12T09:39:50.116Z,10.20
2023-01-12T09:45:28.132Z,10.20
2023-01-12T09:50:39.362Z,10.20
2023-01-12T09:55:43.832Z,10.10
2023-01-12T10:00:51.199Z,10.10
2023-01-12T10:05:55.273Z,10.10
2023-01-12T10:11:25.447Z,10.20
2023-01-12T10:17:02.359Z,10.40
2023-01-12T10:22:37.070Z,10.40
2023-01-12T10:27:42.617Z,10.50
2023-01-12T10:32:44.827Z,10.60
2023-01-12T10:37:55.571Z,10.60
2023-01-12T10:43:31.825Z,10.50
2023-01-12T10:48:33.884Z,10.60
2023-01-12T10:53:38.132Z,10.60
2023-01-12T10:58:41.841Z,10.60
2023-01-12T11:03:43.584Z,10.70
2023-01-12T11:08:45.288Z,10.60
2023-01-12T11:13:47.066Z,10.60
2023-01-12T11:19:14.677Z,10.60
2023-01-12T11:24:35.676Z,10.60
2023-01-12T11:30:00.519Z,10.60
2023-01-12T11:35:47.586Z,10.70
2023-01-12T11:40:49.756Z,10.60
2023-01-12T11:46:02.228Z,10.60
2023-01-12T11:51:04.863Z,10.60
2023-01-12T11:56:47.659Z,10.60
2023-01-12T12:02:23.769Z,10.50
2023-01-12T12:07:25.470Z,10.50
2023-01-12T12:12:55.662Z,10.50
2023-01-12T12:18:06.337Z,10.40
2023-01-12T12:23:29.375Z,10.50
2023-01-12T12:28:43.667Z,10.50
2023-01-12T12:33:58.435Z,10.50
2023-01-12T12:39:21.691Z,10.50
2023-01-12T12:44:57.139Z,10.50
2023-01-12T12:50:01.107Z,10.50
2023-01-12T12:55:05.032Z,10.50
2023-01-12T13:00:40.387Z,10.60
2023-01-12T13:05:45.236Z,10.60
2023-01-12T13:10:56.151Z,10.70
2023-01-12T13:16:18.993Z,10.80
2023-01-12T13:21:26.914Z,10.80
2023-01-12T13:26:37.989Z,10.90
2023-01-12T13:31:39.824Z,10.90
2023-01-12T13:36:43.449Z,10.90
2023-01-12T13:42:04.808Z,10.90
2023-01-12T13:47:16.417Z,11.00
2023-01-12T13:52:34.119Z,10.90
2023-01-12T13:57:37.169Z,11.00
2023-01-12T14:02:40.557Z,10.90
2023-01-12T14:07:57.700Z,10.90
2023-01-12T14:13:14.126Z,10.90
2023-01-12T14:18:19.675Z,10.90
2023-01-12T14:23:26.220Z,11.00
2023-01-12T14:28:28.675Z,11.00
2023-01-12T14:33:33.405Z,11.00
2023-01-12T14:38:40.462Z,10.90
2023-01-12T14:44:01.808Z,10.90
2023-01-12T14:49:21.439Z,10.90
2023-01-12T14:54:31.615Z,10.90
2023-01-12T14:59:43.593Z,10.90
2023-01-12T15:04:56.641Z,10.90
2023-01-12T15:10:01.875Z,10.80
2023-01-12T15:15:15.618Z,10.90
2023-01-12T15:20:49.712Z,10.90
2023-01-12T15:25:51.422Z,10.90
2023-01-12T15:30:55.632Z,10.90
2023-01-12T15:35:58.427Z,10.80
2023-01-12T15:41:00.261Z,10.90
2023-01-12T15:46:02.100Z,11.00
2023-01-12T15:51:04.052Z,11.00
2023-01-12T15:56:09.390Z,11.10
2023-01-12T16:01:16.340Z,11.00
2023-01-12T16:06:18.098Z,11.00
2023-01-12T16:11:22.586Z,11.00
2023-01-12T16:16:26.444Z,11.00
2023-01-12T16:21:28.847Z,11.00
2023-01-12T16:26:30.717Z,11.00
2023-01-12T16:31:32.666Z,11.00
2023-01-12T16:36:34.587Z,11.00
2023-01-12T16:41:36.372Z,11.10
2023-01-12T16:46:38.083Z,11.10
2023-01-12T16:51:39.941Z,11.00
2023-01-12T16:56:42.531Z,11.10
2023-01-12T17:01:44.787Z,11.10
2023-01-12T17:06:47.730Z,11.10
2023-01-12T17:11:50.410Z,11.00
2023-01-12T17:16:58.548Z,11.00
2023-01-12T17:22:02.148Z,11.00
2023-01-12T17:27:04.184Z,11.10
2023-01-12T17:32:07.668Z,11.00
2023-01-12T17:37:10.586Z,11.00
2023-01-12T17:42:32.747Z,11.00
2023-01-12T17:47:34.416Z,11.00
2023-01-12T17:52:36.455Z,11.00
2023-01-12T17:57:38.416Z,10.90
2023-01-12T18:02:43.762Z,10.80
2023-01-12T18:07:45.569Z,10.90
2023-01-12T18:12:47.380Z,10.80
2023-01-12T18:17:49.227Z,10.70
2023-01-12T18:22:55.026Z,10.70
2023-01-12T18:27:56.703Z,10.70
2023-01-12T18:32:58.441Z,10.70
2023-01-12T18:38:00.127Z,10.70
2023-01-12T18:43:01.820Z,10.70
2023-01-12T18:48:23.586Z,10.70
2023-01-12T18:53:25.777Z,10.70
2023-01-12T18:58:30.582Z,10.70
2023-01-12T19:03:32.686Z,10.80
2023-01-12T19:08:52.770Z,10.80
2023-01-12T19:14:13.109Z,10.80
2023-01-12T19:19:14.958Z,10.80
2023-01-12T19:24:35.072Z,10.90
2023-01-12T19:29:38.272Z,10.90
2023-01-12T19:34:41.160Z,10.90
2023-01-12T19:40:00.746Z,10.80
2023-01-12T19:45:07.179Z,10.90
2023-01-12T19:50:11.993Z,10.70
2023-01-12T19:55:14.856Z,10.70
2023-01-12T20:00:17.494Z,10.70
2023-01-12T20:05:22.832Z,10.70
2023-01-12T20:10:24.836Z,10.70
2023-01-12T20:15:27.024Z,10.70
2023-01-12T20:20:29.065Z,10.70
2023-01-12T20:25:31.061Z,10.80
2023-01-12T20:30:37.829Z,10.80
2023-01-12T20:35:46.341Z,10.80
2023-01-12T20:40:48.271Z,10.80
2023-01-12T20:45:50.497Z,10.80
2023-01-12T20:50:53.398Z,10.80
2023-01-12T20:55:55.107Z,10.80
2023-01-12T21:01:00.234Z,10.80
2023-01-12T21:06:02.033Z,10.80
2023-01-12T21:11:03.934Z,10.80
2023-01-12T21:16:07.893Z,10.80
2023-01-12T21:21:10.610Z,10.90
2023-01-12T21:26:12.423Z,11.00
2023-01-12T21:31:14.359Z,10.90
2023-01-12T21:36:18.240Z,10.90
2023-01-12T21:41:21.983Z,10.90
2023-01-12T21:46:23.959Z,11.00
2023-01-12T21:51:25.789Z,11.00
2023-01-12T21:56:27.573Z,11.00
2023-01-12T22:01:29.475Z,11.10
2023-01-12T22:06:32.119Z,11.10
2023-01-12T22:11:34.092Z,11.10
2023-01-12T22:16:36.202Z,11.00
2023-01-12T22:21:38.247Z,11.10
2023-01-12T22:26:40.138Z,11.10
2023-01-12T22:31:41.986Z,11.20
2023-01-12T22:36:44.515Z,11.10
2023-01-12T22:41:47.386Z,11.20
2023-01-12T22:46:50.484Z,11.20
2023-01-12T22:51:52.183Z,11.10
2023-01-12T22:56:54.483Z,11.10
2023-01-12T23:02:16.440Z,11.00
2023-01-12T23:07:19.479Z,10.90
2023-01-12T23:12:21.307Z,10.90
2023-01-12T23:17:26.412Z,10.90
2023-01-12T23:22:31.064Z,10.90
2023-01-12T23:27:33.655Z,10.90
2023-01-12T23:32:35.404Z,11.00
2023-01-12T23:37:37.189Z,10.90
2023-01-12T23:42:38.947Z,10.90
2023-01-12T23:47:40.890Z,11.00
2023-01-12T23:52:42.673Z,11.00
2023-01-12T23:57:47.341Z,10.90
